Time;durP1;ratioP1;P1;durP2;ratioP2;P2;SDS_P1;SDS_P2;PMS_P1;PMS_P2;Temp;Humidity;BMP_temperature;BMP_pressure;BME280_temperature;BME280_humidity;BME280_pressure;Samples;Min_cycle;Max_cycle;Signal;HPM_P1;HPM_P2
2022/05/04 00:01:25;;;;;;;0.73;0.40;;;;;;;;;;5029955;28;20350;-61
2022/05/04 00:04:13;;;;;;;0.50;0.50;;;;;;;;;;5030131;28;20282;-61
2022/05/04 00:07:00;;;;;;;0.60;0.60;;;;;;;;;;5031141;28;20778;-61
2022/05/04 00:09:47;;;;;;;0.50;0.50;;;;;;;;;;5027328;28;20717;-61
2022/05/04 00:12:35;;;;;;;0.50;0.50;;;;;;;;;;5032389;28;20248;-61
2022/05/04 00:15:22;;;;;;;2.67;0.70;;;;;;;;;;5029887;28;20303;-61
2022/05/04 00:18:09;;;;;;;0.70;0.70;;;;;;;;;;5029745;28;20204;-61
2022/05/04 00:20:57;;;;;;;0.70;0.70;;;;;;;;;;5030248;28;20299;-61
2022/05/04 00:23:44;;;;;;;0.50;0.50;;;;;;;;;;5030923;28;20696;-61
2022/05/04 00:26:31;;;;;;;0.70;0.70;;;;;;;;;;5030931;28;20746;-61
2022/05/04 00:29:18;;;;;;;0.60;0.60;;;;;;;;;;5030144;28;20313;-61
2022/05/04 00:32:06;;;;;;;1.33;0.50;;;;;;;;;;5029763;28;20293;-62
2022/05/04 00:34:53;;;;;;;0.57;0.57;;;;;;;;;;5033024;28;20555;-61
2022/05/04 00:37:41;;;;;;;0.63;0.63;;;;;;;;;;5028807;28;20676;-61
2022/05/04 00:40:28;;;;;;;0.50;0.50;;;;;;;;;;5029751;28;20219;-61
2022/05/04 00:43:23;;;;;;;0.77;0.77;;;;;;;;;;5032833;28;20301;-61
2022/05/04 00:46:10;;;;;;;0.80;0.80;;;;;;;;;;5028555;28;20239;-61
2022/05/04 00:48:57;;;;;;;0.50;0.50;;;;;;;;;;5028712;28;20240;-61
2022/05/04 00:51:44;;;;;;;0.40;0.40;;;;;;;;;;5030792;28;20338;-61
2022/05/04 00:54:33;;;;;;;0.50;0.50;;;;;;;;;;5028719;28;20653;-61
2022/05/04 00:58:54;;;;;;;0.77;0.50;;;;;;;;;;5029277;28;20239;-61
2022/05/04 01:00:28;;;;;;;0.50;0.50;;;;;;;;;;5026500;28;20212;-61
2022/05/04 01:03:15;;;;;;;0.60;0.60;;;;;;;;;;5035397;28;20207;-61
2022/05/04 01:06:02;;;;;;;0.50;0.50;;;;;;;;;;5032444;28;20264;-61
2022/05/04 01:08:50;;;;;;;0.53;0.40;;;;;;;;;;5030959;28;20329;-61
2022/05/04 01:11:39;;;;;;;0.50;0.50;;;;;;;;;;5028454;28;20228;-61
2022/05/04 01:14:25;;;;;;;0.70;0.70;;;;;;;;;;5028950;28;20214;-61
2022/05/04 01:17:12;;;;;;;0.50;0.50;;;;;;;;;;5026465;28;20295;-61
2022/05/04 01:19:59;;;;;;;0.73;0.73;;;;;;;;;;5030738;28;20294;-62
2022/05/04 01:22:47;;;;;;;0.80;0.80;;;;;;;;;;5028504;28;20283;-61
2022/05/04 01:25:35;;;;;;;0.40;0.40;;;;;;;;;;5028342;28;20291;-61
2022/05/04 01:28:22;;;;;;;0.50;0.50;;;;;;;;;;5031498;28;20372;-62
2022/05/04 01:31:09;;;;;;;0.70;0.60;;;;;;;;;;5030758;28;20337;-61
2022/05/04 01:33:56;;;;;;;0.50;0.50;;;;;;;;;;5028692;28;20218;-60
2022/05/04 01:36:43;;;;;;;0.60;0.60;;;;;;;;;;5026596;28;20243;-61
2022/05/04 01:39:31;;;;;;;0.50;0.50;;;;;;;;;;5031566;28;20239;-61
2022/05/04 01:42:23;;;;;;;0.70;0.70;;;;;;;;;;5031543;28;20289;-61
2022/05/04 01:45:11;;;;;;;0.60;0.60;;;;;;;;;;5030098;28;20212;-60
2022/05/04 01:47:58;;;;;;;0.60;0.60;;;;;;;;;;5029247;28;20712;-61
2022/05/04 01:50:45;;;;;;;0.53;0.53;;;;;;;;;;5034450;28;20230;-61
2022/05/04 01:53:32;;;;;;;0.67;0.67;;;;;;;;;;5028234;28;20313;-62
2022/05/04 01:56:21;;;;;;;0.60;0.60;;;;;;;;;;5029363;28;20239;-61
2022/05/04 01:59:07;;;;;;;0.60;0.60;;;;;;;;;;5027592;28;20286;-61
2022/05/04 02:01:55;;;;;;;0.60;0.60;;;;;;;;;;5028530;28;20286;-61
2022/05/04 02:04:42;;;;;;;0.50;0.50;;;;;;;;;;5035126;28;20451;-61
2022/05/04 02:07:29;;;;;;;0.70;0.70;;;;;;;;;;5027912;28;20238;-61
2022/05/04 02:10:16;;;;;;;0.50;0.50;;;;;;;;;;5029431;28;20719;-61
2022/05/04 02:13:05;;;;;;;0.50;0.50;;;;;;;;;;5030961;28;20207;-61
2022/05/04 02:15:52;;;;;;;0.60;0.60;;;;;;;;;;5029278;28;20212;-61
2022/05/04 02:18:38;;;;;;;0.50;0.50;;;;;;;;;;5026459;28;20749;-61
2022/05/04 02:21:25;;;;;;;0.43;0.43;;;;;;;;;;5027737;28;20344;-61
2022/05/04 02:24:12;;;;;;;0.50;0.50;;;;;;;;;;5028698;28;20261;-61
2022/05/04 02:26:59;;;;;;;0.67;0.67;;;;;;;;;;5029124;28;20358;-61
2022/05/04 02:29:47;;;;;;;0.50;0.50;;;;;;;;;;5027465;28;20320;-61
2022/05/04 02:32:34;;;;;;;0.60;0.60;;;;;;;;;;5030814;28;20394;-61
2022/05/04 02:38:27;;;;;;;0.57;0.57;;;;;;;;;;5032709;28;20203;-61
2022/05/04 02:41:14;;;;;;;0.50;0.50;;;;;;;;;;5031800;28;20207;-61
2022/05/04 02:44:02;;;;;;;0.50;0.50;;;;;;;;;;5034895;28;20283;-61
2022/05/04 02:46:50;;;;;;;0.30;0.30;;;;;;;;;;5034496;28;20208;-61
2022/05/04 02:49:37;;;;;;;0.30;0.30;;;;;;;;;;5036078;28;20368;-61
2022/05/04 02:52:24;;;;;;;0.33;0.33;;;;;;;;;;5031551;28;20207;-61
2022/05/04 02:55:11;;;;;;;0.40;0.40;;;;;;;;;;5032575;28;20243;-61
2022/05/04 02:58:00;;;;;;;0.43;0.43;;;;;;;;;;5032004;28;20735;-61
2022/05/04 03:00:47;;;;;;;0.50;0.50;;;;;;;;;;5031466;28;20679;-61
2022/05/04 03:03:34;;;;;;;0.40;0.40;;;;;;;;;;5029650;28;20327;-62
2022/05/04 03:06:21;;;;;;;0.40;0.40;;;;;;;;;;5030423;28;20211;-61
2022/05/04 03:09:09;;;;;;;0.33;0.33;;;;;;;;;;5036808;28;20231;-61
2022/05/04 03:11:56;;;;;;;0.30;0.30;;;;;;;;;;5033654;28;20298;-62
2022/05/04 03:14:44;;;;;;;0.60;0.60;;;;;;;;;;5032781;28;20641;-61
2022/05/04 03:17:31;;;;;;;0.50;0.50;;;;;;;;;;5029073;28;20785;-61
2022/05/04 03:20:19;;;;;;;0.40;0.40;;;;;;;;;;5032689;28;20204;-61
2022/05/04 03:23:06;;;;;;;0.37;0.30;;;;;;;;;;5034945;28;20704;-62
2022/05/04 03:25:53;;;;;;;0.53;0.53;;;;;;;;;;5030016;28;20675;-61
2022/05/04 03:28:40;;;;;;;0.47;0.47;;;;;;;;;;5035610;28;20691;-60
2022/05/04 03:31:27;;;;;;;0.67;0.50;;;;;;;;;;5031416;28;20647;-61
2022/05/04 03:34:14;;;;;;;0.67;0.67;;;;;;;;;;5030597;28;20695;-61
2022/05/04 03:37:02;;;;;;;0.30;0.30;;;;;;;;;;5036338;28;20302;-60
2022/05/04 03:39:49;;;;;;;0.40;0.40;;;;;;;;;;5033557;28;20269;-61
2022/05/04 03:42:36;;;;;;;0.43;0.43;;;;;;;;;;5031878;28;20786;-62
2022/05/04 03:45:23;;;;;;;0.40;0.40;;;;;;;;;;5030238;28;20208;-61
2022/05/04 03:48:10;;;;;;;0.60;0.60;;;;;;;;;;5027677;28;20318;-61
2022/05/04 03:50:57;;;;;;;0.60;0.60;;;;;;;;;;5032511;28;20318;-61
2022/05/04 03:53:45;;;;;;;0.50;0.50;;;;;;;;;;5028973;28;20310;-61
2022/05/04 03:56:34;;;;;;;0.60;0.60;;;;;;;;;;5030528;28;20293;-61
2022/05/04 03:59:21;;;;;;;0.53;0.53;;;;;;;;;;5030972;28;20292;-61
2022/05/04 04:02:07;;;;;;;0.50;0.50;;;;;;;;;;5028466;28;20709;-61
2022/05/04 04:04:54;;;;;;;0.60;0.60;;;;;;;;;;5032822;28;20295;-61
2022/05/04 04:07:41;;;;;;;0.47;0.47;;;;;;;;;;5026866;28;20236;-61
2022/05/04 04:10:29;;;;;;;0.87;0.40;;;;;;;;;;5040727;28;20296;-61
2022/05/04 04:13:17;;;;;;;0.47;0.47;;;;;;;;;;5030930;28;20213;-60
2022/05/04 04:16:04;;;;;;;0.57;0.57;;;;;;;;;;5031977;28;20201;-61
2022/05/04 04:18:51;;;;;;;0.93;0.50;;;;;;;;;;5029580;28;20300;-61
2022/05/04 04:21:53;;;;;;;0.57;0.40;;;;;;;;;;5035890;28;20215;-60
2022/05/04 04:24:40;;;;;;;0.50;0.50;;;;;;;;;;5036874;28;20299;-61
2022/05/04 04:27:29;;;;;;;2.00;0.73;;;;;;;;;;5030223;28;20282;-60
2022/05/04 04:30:16;;;;;;;0.50;0.50;;;;;;;;;;5027081;28;20345;-61
2022/05/04 04:33:03;;;;;;;0.57;0.57;;;;;;;;;;5030141;28;20674;-62
2022/05/04 04:35:51;;;;;;;0.40;0.40;;;;;;;;;;5031768;28;20259;-61
2022/05/04 04:38:38;;;;;;;0.60;0.50;;;;;;;;;;5030588;28;20720;-61
2022/05/04 04:41:25;;;;;;;1.30;0.43;;;;;;;;;;5028972;28;20668;-61
2022/05/04 04:44:13;;;;;;;0.50;0.50;;;;;;;;;;5028908;28;20323;-61
2022/05/04 04:47:00;;;;;;;0.60;0.60;;;;;;;;;;5027961;28;20236;-61
2022/05/04 04:49:47;;;;;;;0.40;0.40;;;;;;;;;;5034250;28;20851;-61
2022/05/04 04:52:34;;;;;;;1.30;0.60;;;;;;;;;;5030870;28;20700;-61
2022/05/04 04:55:21;;;;;;;0.40;0.40;;;;;;;;;;5028856;28;20383;-60
2022/05/04 04:58:08;;;;;;;0.50;0.50;;;;;;;;;;5030082;28;20283;-61
2022/05/04 05:00:56;;;;;;;0.60;0.60;;;;;;;;;;5030070;28;20201;-62
2022/05/04 05:03:43;;;;;;;0.40;0.40;;;;;;;;;;5034278;28;20209;-61
2022/05/04 05:06:30;;;;;;;0.43;0.43;;;;;;;;;;5030039;28;20241;-61
2022/05/04 05:09:17;;;;;;;0.60;0.60;;;;;;;;;;5035181;28;20688;-61
2022/05/04 05:12:05;;;;;;;0.60;0.60;;;;;;;;;;5029449;28;20669;-61
2022/05/04 05:17:58;;;;;;;0.70;0.70;;;;;;;;;;5028980;28;20221;-60
2022/05/04 05:20:45;;;;;;;0.60;0.60;;;;;;;;;;5035038;28;20223;-61
2022/05/04 05:23:32;;;;;;;0.47;0.47;;;;;;;;;;5027734;28;20250;-61
2022/05/04 05:26:19;;;;;;;0.80;0.50;;;;;;;;;;5030306;28;20321;-61
2022/05/04 05:29:06;;;;;;;0.83;0.70;;;;;;;;;;5028114;28;20347;-61
2022/05/04 05:31:53;;;;;;;0.90;0.70;;;;;;;;;;5028439;28;20213;-61
2022/05/04 05:34:41;;;;;;;0.50;0.50;;;;;;;;;;5033924;28;20248;-61
2022/05/04 05:37:28;;;;;;;0.73;0.67;;;;;;;;;;5030633;28;20233;-61
2022/05/04 05:40:15;;;;;;;0.50;0.50;;;;;;;;;;5028852;28;20285;-61
2022/05/04 05:43:02;;;;;;;0.60;0.60;;;;;;;;;;5028657;28;20214;-61
2022/05/04 05:45:49;;;;;;;0.53;0.53;;;;;;;;;;5031988;28;20338;-61
2022/05/04 05:48:36;;;;;;;2.10;0.80;;;;;;;;;;5027334;28;20271;-61
2022/05/04 05:51:25;;;;;;;0.70;0.50;;;;;;;;;;5028992;28;20671;-61
2022/05/04 05:54:12;;;;;;;0.80;0.80;;;;;;;;;;5031154;28;20654;-61
2022/05/04 05:56:58;;;;;;;0.37;0.37;;;;;;;;;;5026144;28;20744;-61
2022/05/04 05:59:45;;;;;;;0.60;0.60;;;;;;;;;;5035618;28;20307;-60
2022/05/04 06:02:33;;;;;;;1.20;0.70;;;;;;;;;;5034343;28;20255;-60
2022/05/04 06:05:20;;;;;;;0.60;0.60;;;;;;;;;;5030663;28;20204;-61
2022/05/04 06:08:09;;;;;;;0.60;0.60;;;;;;;;;;5034243;28;20424;-62
2022/05/04 06:10:56;;;;;;;0.40;0.40;;;;;;;;;;5033048;28;20222;-61
2022/05/04 06:13:43;;;;;;;0.53;0.53;;;;;;;;;;5032392;28;20693;-62
2022/05/04 06:16:30;;;;;;;0.50;0.50;;;;;;;;;;5033126;28;20665;-61
2022/05/04 06:19:17;;;;;;;0.90;0.60;;;;;;;;;;5031283;28;20265;-61
2022/05/04 06:22:04;;;;;;;0.50;0.50;;;;;;;;;;5033655;28;20264;-61
2022/05/04 06:24:53;;;;;;;0.47;0.40;;;;;;;;;;5033570;28;20298;-61
2022/05/04 06:27:40;;;;;;;0.53;0.53;;;;;;;;;;5032452;28;20580;-61
2022/05/04 06:36:36;;;;;;;0.70;0.70;;;;;;;;;;5035049;28;20711;-61
2022/05/04 06:39:23;;;;;;;0.60;0.60;;;;;;;;;;5030743;28;20215;-61
2022/05/04 06:42:11;;;;;;;0.70;0.70;;;;;;;;;;5033035;28;20207;-61
2022/05/04 06:44:58;;;;;;;0.88;0.88;;;;;;;;;;5027738;28;20210;-60
2022/05/04 06:47:45;;;;;;;0.90;0.57;;;;;;;;;;5029696;28;20321;-61
2022/05/04 06:50:32;;;;;;;1.42;0.85;;;;;;;;;;5013651;28;20260;-61
2022/05/04 06:53:19;;;;;;;0.55;0.40;;;;;;;;;;5014558;28;20415;-61
2022/05/04 06:56:06;;;;;;;0.50;0.50;;;;;;;;;;5008430;28;20243;-61
2022/05/04 06:58:54;;;;;;;0.60;0.60;;;;;;;;;;5007815;28;20664;-60
2022/05/04 07:01:41;;;;;;;0.70;0.70;;;;;;;;;;5016376;28;20824;-59
2022/05/04 07:04:28;;;;;;;0.70;0.70;;;;;;;;;;5018815;28;20301;-61
2022/05/04 07:07:15;;;;;;;0.70;0.70;;;;;;;;;;5020353;28;20315;-61
2022/05/04 07:10:02;;;;;;;1.63;0.80;;;;;;;;;;5018210;28;20738;-60
2022/05/04 07:12:50;;;;;;;0.70;0.70;;;;;;;;;;5018173;28;20287;-60
2022/05/04 07:15:38;;;;;;;0.63;0.63;;;;;;;;;;5017946;28;20260;-60
2022/05/04 07:18:25;;;;;;;0.55;0.55;;;;;;;;;;5020889;28;20242;-60
2022/05/04 07:21:12;;;;;;;0.60;0.60;;;;;;;;;;5018384;28;20213;-60
2022/05/04 07:23:59;;;;;;;0.60;0.60;;;;;;;;;;5021098;28;20239;-60
2022/05/04 07:26:46;;;;;;;0.60;0.60;;;;;;;;;;5019676;28;20209;-59
2022/05/04 07:29:34;;;;;;;0.52;0.52;;;;;;;;;;5018609;28;20712;-59
2022/05/04 07:32:22;;;;;;;0.43;0.43;;;;;;;;;;5019421;28;20209;-59
2022/05/04 07:35:09;;;;;;;0.68;0.60;;;;;;;;;;5020587;28;20740;-59
2022/05/04 07:37:56;;;;;;;0.63;0.63;;;;;;;;;;5023611;28;20649;-59
2022/05/04 07:43:47;;;;;;;0.82;0.65;;;;;;;;;;5018507;28;20216;-59
2022/05/04 07:46:34;;;;;;;0.60;0.60;;;;;;;;;;5015279;28;20682;-60
2022/05/04 07:49:23;;;;;;;1.58;0.50;;;;;;;;;;5018140;28;20358;-60
2022/05/04 07:52:10;;;;;;;0.55;0.55;;;;;;;;;;5023503;28;20372;-60
2022/05/04 07:54:56;;;;;;;0.55;0.55;;;;;;;;;;5017227;28;20216;-61
2022/05/04 07:57:47;;;;;;;0.60;0.60;;;;;;;;;;5023662;28;20291;-61
2022/05/04 08:06:44;;;;;;;0.93;0.82;;;;;;;;;;5014309;28;20707;-60
2022/05/04 08:09:34;;;;;;;0.40;0.40;;;;;;;;;;5013836;28;20364;-61
2022/05/04 08:12:21;;;;;;;0.40;0.40;;;;;;;;;;5017405;28;20220;-60
2022/05/04 08:15:09;;;;;;;0.47;0.47;;;;;;;;;;5015076;28;20295;-60
2022/05/04 08:17:57;;;;;;;0.60;0.60;;;;;;;;;;5017959;28;20286;-60
2022/05/04 08:20:44;;;;;;;0.57;0.57;;;;;;;;;;5019393;28;20217;-60
2022/05/04 08:23:32;;;;;;;0.70;0.70;;;;;;;;;;5021016;28;20305;-57
2022/05/04 08:26:19;;;;;;;0.45;0.40;;;;;;;;;;5015390;28;20211;-60
2022/05/04 08:29:06;;;;;;;0.50;0.50;;;;;;;;;;5022018;28;20240;-57
2022/05/04 08:31:54;;;;;;;0.80;0.80;;;;;;;;;;5014645;28;20729;-58
2022/05/04 08:34:40;;;;;;;0.60;0.60;;;;;;;;;;5019333;28;20296;-58
2022/05/04 08:37:28;;;;;;;0.73;0.60;;;;;;;;;;5020319;28;20273;-59
2022/05/04 08:40:16;;;;;;;1.08;0.63;;;;;;;;;;5018837;28;20239;-59
2022/05/04 08:43:07;;;;;;;0.73;0.70;;;;;;;;;;5023078;28;20219;-58
2022/05/04 08:45:54;;;;;;;0.60;0.60;;;;;;;;;;5019435;28;20209;-58
2022/05/04 08:48:41;;;;;;;1.00;0.73;;;;;;;;;;5024756;28;20708;-59
2022/05/04 08:51:29;;;;;;;0.77;0.77;;;;;;;;;;5017490;28;20326;-60
2022/05/04 08:54:17;;;;;;;0.80;0.80;;;;;;;;;;5015885;28;20783;-60
2022/05/04 08:57:06;;;;;;;0.80;0.80;;;;;;;;;;5018418;28;20559;-60
2022/05/04 08:59:54;;;;;;;0.98;0.80;;;;;;;;;;5015446;28;20284;-60
2022/05/04 09:02:41;;;;;;;0.68;0.60;;;;;;;;;;5020680;28;20284;-60
2022/05/04 09:05:30;;;;;;;0.80;0.80;;;;;;;;;;5014855;28;20763;-61
2022/05/04 09:08:17;;;;;;;0.75;0.75;;;;;;;;;;5019019;28;20572;-60
2022/05/04 09:11:15;;;;;;;0.57;0.57;;;;;;;;;;5018372;28;20238;-61
2022/05/04 09:14:08;;;;;;;1.40;0.65;;;;;;;;;;5018634;28;20305;-59
2022/05/04 09:16:54;;;;;;;0.82;0.75;;;;;;;;;;5015688;28;20294;-60
2022/05/04 09:20:45;;;;;;;0.73;0.73;;;;;;;;;;5018081;28;20267;-60
2022/05/04 09:22:52;;;;;;;0.52;0.52;;;;;;;;;;5017604;28;20212;-61
2022/05/04 09:25:39;;;;;;;0.82;0.82;;;;;;;;;;5017515;28;20234;-60
2022/05/04 09:28:27;;;;;;;0.75;0.70;;;;;;;;;;5019732;28;20306;-60
2022/05/04 09:31:18;;;;;;;1.38;0.60;;;;;;;;;;5019717;28;20232;-60
2022/05/04 09:34:09;;;;;;;0.82;0.60;;;;;;;;;;5018299;28;20240;-59
2022/05/04 09:46:37;;;;;;;0.75;0.70;;;;;;;;;;5018630;28;20693;-61
2022/05/04 09:49:30;;;;;;;0.50;0.50;;;;;;;;;;5028474;28;20232;-60
2022/05/04 09:52:24;;;;;;;1.13;1.02;;;;;;;;;;5031342;28;20225;-60
2022/05/04 09:55:17;;;;;;;0.70;0.70;;;;;;;;;;5035339;28;20215;-60
2022/05/04 09:58:04;;;;;;;0.60;0.60;;;;;;;;;;5034187;28;20204;-60
2022/05/04 10:00:52;;;;;;;0.60;0.57;;;;;;;;;;5031376;28;20212;-61
2022/05/04 10:03:41;;;;;;;0.77;0.77;;;;;;;;;;5033170;28;20214;-60
2022/05/04 10:06:29;;;;;;;0.60;0.60;;;;;;;;;;5036317;28;20215;-61
2022/05/04 10:09:16;;;;;;;0.60;0.60;;;;;;;;;;5035875;28;20304;-60
2022/05/04 10:12:04;;;;;;;0.77;0.77;;;;;;;;;;5033221;28;20374;-60
2022/05/04 10:14:53;;;;;;;0.50;0.50;;;;;;;;;;5030525;28;20291;-60
2022/05/04 10:17:45;;;;;;;0.55;0.55;;;;;;;;;;5034158;28;20207;-60
2022/05/04 10:20:39;;;;;;;0.70;0.70;;;;;;;;;;5033168;28;20209;-60
2022/05/04 10:23:30;;;;;;;0.57;0.57;;;;;;;;;;5033963;28;20220;-60
2022/05/04 10:26:17;;;;;;;0.57;0.57;;;;;;;;;;5034622;28;20281;-63
2022/05/04 10:32:44;;;;;;;0.43;0.43;;;;;;;;;;5033571;28;20215;-61
2022/05/04 10:35:41;;;;;;;0.60;0.60;;;;;;;;;;5032651;28;20283;-61
2022/05/04 10:38:33;;;;;;;0.85;0.80;;;;;;;;;;5037634;28;20564;-61
2022/05/04 10:41:33;;;;;;;0.55;0.55;;;;;;;;;;5033441;28;20283;-62
2022/05/04 10:44:54;;;;;;;0.68;0.68;;;;;;;;;;5031285;28;20281;-62
2022/05/04 10:47:41;;;;;;;0.80;0.80;;;;;;;;;;5034156;28;20286;-61
2022/05/04 10:50:48;;;;;;;0.77;0.75;;;;;;;;;;5019258;28;20323;-62
2022/05/04 10:53:38;;;;;;;0.82;0.65;;;;;;;;;;5018307;28;20325;-61
2022/05/04 10:56:27;;;;;;;1.00;0.90;;;;;;;;;;5023312;28;20295;-62
2022/05/04 10:59:24;;;;;;;0.65;0.65;;;;;;;;;;5020183;28;20248;-61
2022/05/04 11:02:13;;;;;;;1.08;0.80;;;;;;;;;;5022679;28;20219;-61
2022/05/04 11:05:12;;;;;;;0.70;0.70;;;;;;;;;;5018717;28;20309;-61
2022/05/04 11:08:00;;;;;;;0.70;0.70;;;;;;;;;;5016416;28;20211;-62
2022/05/04 11:10:48;;;;;;;1.35;0.95;;;;;;;;;;5019411;28;20318;-62
2022/05/04 11:13:35;;;;;;;0.70;0.70;;;;;;;;;;5018135;28;20337;-62
2022/05/04 11:16:23;;;;;;;1.00;0.90;;;;;;;;;;5015577;28;20696;-62
2022/05/04 11:19:14;;;;;;;1.05;0.90;;;;;;;;;;5017231;28;20273;-62
2022/05/04 11:22:02;;;;;;;0.83;0.77;;;;;;;;;;5017963;28;20440;-61
2022/05/04 11:24:51;;;;;;;1.08;0.98;;;;;;;;;;5022019;28;20209;-62
2022/05/04 11:27:38;;;;;;;1.83;0.90;;;;;;;;;;5019315;28;20295;-62
2022/05/04 11:30:26;;;;;;;1.23;1.10;;;;;;;;;;5015007;28;20666;-61
2022/05/04 11:33:14;;;;;;;1.02;0.82;;;;;;;;;;5015446;28;20211;-61
2022/05/04 11:36:01;;;;;;;0.77;0.77;;;;;;;;;;5010496;28;20573;-61
2022/05/04 11:38:49;;;;;;;1.27;0.77;;;;;;;;;;5015490;28;20209;-62
2022/05/04 11:41:38;;;;;;;1.50;0.80;;;;;;;;;;5015933;28;20234;-61
2022/05/04 11:44:26;;;;;;;0.95;0.93;;;;;;;;;;5020275;28;20247;-61
2022/05/04 11:47:14;;;;;;;1.77;1.00;;;;;;;;;;5021084;28;20257;-61
2022/05/04 11:50:00;;;;;;;0.87;0.80;;;;;;;;;;5008041;28;20266;-61
2022/05/04 11:52:48;;;;;;;1.13;0.93;;;;;;;;;;5009273;28;20241;-61
2022/05/04 11:55:35;;;;;;;1.13;0.83;;;;;;;;;;5013527;28;20303;-61
2022/05/04 11:58:25;;;;;;;0.97;0.80;;;;;;;;;;5011161;28;20291;-60
2022/05/04 12:01:13;;;;;;;0.80;0.80;;;;;;;;;;5015623;28;20407;-61
2022/05/04 12:04:01;;;;;;;1.53;1.10;;;;;;;;;;5008909;28;20206;-62
2022/05/04 12:06:48;;;;;;;1.17;1.07;;;;;;;;;;5012893;28;20217;-66
2022/05/04 12:09:35;;;;;;;1.20;1.10;;;;;;;;;;5016754;28;20210;-61
2022/05/04 12:12:22;;;;;;;1.40;1.00;;;;;;;;;;5017410;28;20346;-61
2022/05/04 12:15:11;;;;;;;2.17;1.00;;;;;;;;;;5010286;28;20256;-61
2022/05/04 12:18:00;;;;;;;1.10;1.07;;;;;;;;;;5008829;28;20263;-61
2022/05/04 12:20:48;;;;;;;1.07;1.00;;;;;;;;;;5010613;28;20209;-61
2022/05/04 12:23:36;;;;;;;1.07;1.07;;;;;;;;;;5011197;28;20343;-62
2022/05/04 12:26:24;;;;;;;1.13;1.07;;;;;;;;;;5011004;28;20522;-61
2022/05/04 12:35:22;;;;;;;1.30;1.10;;;;;;;;;;5009511;28;20215;-61
2022/05/04 12:38:10;;;;;;;1.53;0.90;;;;;;;;;;5011169;28;20274;-61
2022/05/04 12:40:57;;;;;;;1.20;1.10;;;;;;;;;;5013282;28;20259;-62
2022/05/04 12:43:46;;;;;;;1.40;1.30;;;;;;;;;;5013576;28;20313;-61
2022/05/04 12:46:33;;;;;;;1.33;1.07;;;;;;;;;;5014017;28;20292;-61
2022/05/04 12:49:23;;;;;;;1.10;1.10;;;;;;;;;;5027926;28;20241;-61
2022/05/04 12:52:10;;;;;;;1.13;1.03;;;;;;;;;;5036784;28;20239;-61
2022/05/04 12:54:57;;;;;;;1.73;1.03;;;;;;;;;;5028754;28;20213;-61
2022/05/04 12:57:45;;;;;;;1.57;1.47;;;;;;;;;;5031567;28;20278;-60
2022/05/04 13:00:31;;;;;;;1.30;1.00;;;;;;;;;;5033560;28;20244;-62
2022/05/04 13:03:18;;;;;;;1.07;1.07;;;;;;;;;;5029116;28;20243;-61
2022/05/04 13:06:07;;;;;;;1.00;1.00;;;;;;;;;;5030790;28;20665;-61
2022/05/04 13:08:54;;;;;;;1.10;1.00;;;;;;;;;;5033122;28;20685;-60
2022/05/04 13:11:42;;;;;;;1.00;0.93;;;;;;;;;;5026787;28;20709;-62
2022/05/04 13:14:29;;;;;;;1.00;1.00;;;;;;;;;;5028089;28;20214;-61
2022/05/04 13:17:16;;;;;;;1.33;1.20;;;;;;;;;;5029279;28;20211;-60
2022/05/04 13:20:04;;;;;;;1.30;1.03;;;;;;;;;;5030071;28;20206;-61
2022/05/04 13:22:52;;;;;;;1.27;1.10;;;;;;;;;;5029872;28;20658;-60
2022/05/04 13:25:39;;;;;;;1.17;1.07;;;;;;;;;;5028928;28;20293;-61
2022/05/04 13:28:28;;;;;;;1.30;1.20;;;;;;;;;;5031733;28;20221;-61
2022/05/04 13:31:15;;;;;;;2.40;1.10;;;;;;;;;;5027928;28;20523;-61
2022/05/04 13:34:02;;;;;;;1.53;1.27;;;;;;;;;;5028500;28;20296;-61
2022/05/04 13:36:49;;;;;;;1.20;1.07;;;;;;;;;;5027697;28;20209;-61
2022/05/04 13:39:38;;;;;;;0.80;0.80;;;;;;;;;;5029956;28;20593;-61
2022/05/04 13:42:24;;;;;;;1.20;1.10;;;;;;;;;;5032782;28;20389;-61
2022/05/04 13:45:12;;;;;;;1.23;0.90;;;;;;;;;;5029830;28;20354;-60
2022/05/04 13:47:59;;;;;;;0.87;0.87;;;;;;;;;;5028865;28;20322;-62
2022/05/04 13:53:50;;;;;;;1.53;1.17;;;;;;;;;;5017858;28;20236;-62
2022/05/04 13:56:39;;;;;;;0.83;0.83;;;;;;;;;;5018554;28;20291;-61
2022/05/04 13:59:26;;;;;;;1.57;1.00;;;;;;;;;;5018438;28;20554;-71
2022/05/04 14:02:13;;;;;;;1.20;1.03;;;;;;;;;;5016892;28;20694;-61
2022/05/04 14:05:00;;;;;;;0.93;0.93;;;;;;;;;;5012614;28;20211;-61
2022/05/04 14:07:48;;;;;;;1.10;1.00;;;;;;;;;;5018016;28;20212;-59
2022/05/04 14:10:37;;;;;;;1.17;1.07;;;;;;;;;;5017822;28;20210;-61
2022/05/04 14:13:27;;;;;;;0.90;0.90;;;;;;;;;;5014302;28;20684;-61
2022/05/04 14:16:14;;;;;;;1.50;1.03;;;;;;;;;;5017107;28;20212;-61
2022/05/04 14:19:01;;;;;;;1.10;1.00;;;;;;;;;;5018363;28;20218;-61
2022/05/04 14:21:48;;;;;;;1.10;1.10;;;;;;;;;;5014948;28;20208;-61
2022/05/04 14:24:35;;;;;;;1.23;1.13;;;;;;;;;;5016454;28;20699;-60
2022/05/04 14:27:22;;;;;;;1.20;1.10;;;;;;;;;;5022063;28;20367;-62
2022/05/04 14:30:11;;;;;;;1.07;0.97;;;;;;;;;;5022164;28;20763;-61
2022/05/04 14:32:58;;;;;;;1.20;1.10;;;;;;;;;;5025191;28;20310;-62
2022/05/04 14:35:45;;;;;;;1.33;1.20;;;;;;;;;;5016701;28;20220;-61
2022/05/04 14:38:32;;;;;;;1.93;1.17;;;;;;;;;;5022819;28;20320;-61
2022/05/04 14:41:20;;;;;;;1.10;1.10;;;;;;;;;;5024435;28;20215;-61
2022/05/04 14:44:07;;;;;;;1.30;1.20;;;;;;;;;;5017201;28;20211;-61
2022/05/04 14:46:57;;;;;;;1.60;1.03;;;;;;;;;;5017653;28;20622;-61
2022/05/04 14:49:45;;;;;;;1.27;1.20;;;;;;;;;;5031506;28;20267;-61
2022/05/04 14:52:32;;;;;;;1.43;1.10;;;;;;;;;;5027904;28;20236;-61
2022/05/04 14:55:19;;;;;;;1.00;1.00;;;;;;;;;;5030947;28;20271;-61
2022/05/04 14:58:06;;;;;;;1.47;1.00;;;;;;;;;;5030005;28;20818;-61
2022/05/04 15:00:53;;;;;;;0.87;0.87;;;;;;;;;;5025698;28;20573;-61
2022/05/04 15:06:46;;;;;;;1.23;1.13;;;;;;;;;;5027709;28;20208;-61
2022/05/04 15:09:33;;;;;;;1.90;1.20;;;;;;;;;;5028720;28;20247;-61
2022/05/04 15:12:20;;;;;;;1.40;1.23;;;;;;;;;;5030454;28;20689;-61
2022/05/04 15:15:07;;;;;;;1.40;1.30;;;;;;;;;;5034821;28;20709;-61
2022/05/04 15:17:57;;;;;;;1.10;1.10;;;;;;;;;;5036485;28;20295;-61
2022/05/04 15:20:46;;;;;;;1.10;1.00;;;;;;;;;;5031799;28;20219;-61
2022/05/04 15:23:33;;;;;;;1.20;1.10;;;;;;;;;;5031360;28;20197;-61
2022/05/04 15:26:20;;;;;;;1.00;1.00;;;;;;;;;;5030720;28;20315;-61
2022/05/04 15:29:07;;;;;;;1.20;1.20;;;;;;;;;;5032923;28;20212;-61
2022/05/04 15:31:54;;;;;;;1.20;1.10;;;;;;;;;;5031212;28;20253;-61
2022/05/04 15:34:41;;;;;;;0.93;0.93;;;;;;;;;;5034075;28;20568;-61
2022/05/04 15:37:30;;;;;;;1.00;1.00;;;;;;;;;;5033893;28;20299;-62
2022/05/04 15:40:17;;;;;;;1.10;1.10;;;;;;;;;;5030175;28;20295;-61
2022/05/04 15:43:04;;;;;;;0.93;0.93;;;;;;;;;;5032413;28;20206;-61
2022/05/04 15:45:51;;;;;;;1.00;1.00;;;;;;;;;;5030807;28;20212;-61
2022/05/04 15:48:38;;;;;;;0.90;0.90;;;;;;;;;;5025229;28;20232;-61
2022/05/04 15:51:25;;;;;;;1.43;1.33;;;;;;;;;;5013750;28;20239;-60
2022/05/04 15:54:13;;;;;;;2.27;1.17;;;;;;;;;;5012671;28;20239;-60
2022/05/04 15:57:01;;;;;;;1.40;1.30;;;;;;;;;;5013103;28;20240;-61
2022/05/04 15:59:48;;;;;;;1.30;1.20;;;;;;;;;;5017405;28;20227;-61
2022/05/04 16:05:40;;;;;;;1.43;1.13;;;;;;;;;;5012945;28;20208;-61
2022/05/04 16:08:27;;;;;;;1.30;1.20;;;;;;;;;;5015900;28;20216;-61
2022/05/04 16:11:15;;;;;;;1.43;1.10;;;;;;;;;;5012514;28;20235;-61
2022/05/04 16:14:02;;;;;;;1.10;1.00;;;;;;;;;;5010820;28;20286;-61
2022/05/04 16:22:58;;;;;;;1.27;1.17;;;;;;;;;;5012323;28;20213;-61
2022/05/04 16:25:45;;;;;;;0.90;0.90;;;;;;;;;;5013953;28;20250;-61
2022/05/04 16:28:34;;;;;;;1.30;1.20;;;;;;;;;;5011122;28;20257;-60
2022/05/04 16:31:21;;;;;;;1.10;1.00;;;;;;;;;;5014515;28;20252;-61
2022/05/04 16:34:08;;;;;;;1.90;1.03;;;;;;;;;;5013515;28;20345;-61
2022/05/04 16:36:55;;;;;;;1.00;1.00;;;;;;;;;;5014874;28;20667;-60
2022/05/04 16:39:43;;;;;;;1.20;1.10;;;;;;;;;;5014026;28;20242;-61
2022/05/04 16:42:30;;;;;;;1.20;1.10;;;;;;;;;;5018870;28;20339;-61
2022/05/04 16:45:19;;;;;;;1.03;1.03;;;;;;;;;;5015861;28;20233;-61
2022/05/04 16:48:06;;;;;;;1.10;1.00;;;;;;;;;;5013222;28;20325;-61
2022/05/04 16:50:53;;;;;;;1.50;1.10;;;;;;;;;;5015409;28;20343;-61
2022/05/04 16:53:40;;;;;;;0.83;0.83;;;;;;;;;;5008043;28;20313;-60
2022/05/04 16:56:27;;;;;;;0.90;0.90;;;;;;;;;;5011590;28;20728;-60
2022/05/04 16:59:14;;;;;;;1.93;1.33;;;;;;;;;;5020190;28;20731;-61
2022/05/04 17:02:02;;;;;;;0.70;0.70;;;;;;;;;;5013664;28;20285;-61
2022/05/04 17:04:49;;;;;;;1.10;1.03;;;;;;;;;;5018542;28;20261;-61
2022/05/04 17:07:36;;;;;;;1.53;1.20;;;;;;;;;;5016358;28;20818;-61
2022/05/04 17:10:23;;;;;;;1.90;1.07;;;;;;;;;;5012141;28;20237;-60
2022/05/04 17:13:10;;;;;;;1.07;1.07;;;;;;;;;;5011942;28;20284;-61
2022/05/04 17:15:57;;;;;;;2.23;1.20;;;;;;;;;;5010947;28;20777;-61
2022/05/04 17:18:46;;;;;;;0.90;0.90;;;;;;;;;;5011212;28;20698;-61
2022/05/04 17:21:33;;;;;;;1.23;1.13;;;;;;;;;;5011971;28;20205;-60
2022/05/04 17:24:20;;;;;;;1.20;1.20;;;;;;;;;;5016282;28;20244;-61
2022/05/04 17:27:07;;;;;;;1.30;1.20;;;;;;;;;;5012968;28;20674;-61
2022/05/04 17:29:54;;;;;;;0.90;0.90;;;;;;;;;;5012592;28;20213;-61
2022/05/04 17:38:51;;;;;;;1.53;1.10;;;;;;;;;;5014901;28;20221;-60
2022/05/04 17:41:38;;;;;;;1.30;1.20;;;;;;;;;;5011956;28;20642;-61
2022/05/04 17:44:25;;;;;;;1.03;0.90;;;;;;;;;;5012980;28;20261;-61
2022/05/04 17:47:12;;;;;;;1.10;1.00;;;;;;;;;;5010324;28;20322;-61
2022/05/04 17:50:01;;;;;;;1.77;1.13;;;;;;;;;;5011904;28;20305;-60